Time;durP1;ratioP1;P1;durP2;ratioP2;P2;SDS_P1;SDS_P2;PMS_P1;PMS_P2;Temp;Humidity;BMP_temperature;BMP_pressure;BME280_temperature;BME280_humidity;BME280_pressure;Samples;Min_cycle;Max_cycle;Signal;HPM_P1;HPM_P2
2023/03/16 00:00:18;;;;;;;;;;;;;;;;;;1035882;28;20415;-27
2023/03/16 00:00:48;;;;;;;;;;;;;;;;;;1035967;28;20015;-26
2023/03/16 00:01:18;;;;;;;;;;;;;;;;;;1036006;28;19909;-27
2023/03/16 00:01:48;;;;;;;;;;;;;;;;;;1035890;28;19920;-25
2023/03/16 00:02:18;;;;;;;;;;;;;;;;;;1036175;28;19910;-26
2023/03/16 00:02:49;;;;;;;;;;;;;;;;;;1035824;28;20392;-25
2023/03/16 00:03:19;;;;;;;;;;;;;;;;;;1036204;28;20287;-27
2023/03/16 00:03:49;;;;;;;;;;;;;;;;;;1036000;28;19980;-26
2023/03/16 00:04:20;;;;;;;;;;;;;;;;;;1036121;28;19917;-25
2023/03/16 00:04:50;;;;;;;;;;;;;;;;;;1036086;28;19917;-26
2023/03/16 00:05:20;;;;;;;;;;;;;;;;;;1036194;28;19913;-26
2023/03/16 00:05:51;;;;;;;;;;;;;;;;;;1035996;28;19913;-28
2023/03/16 00:06:21;;;;;;;;;;;;;;;;;;1036068;28;19909;-26
2023/03/16 00:06:51;;;;;;;;;;;;;;;;;;1035832;28;19909;-28
2023/03/16 00:07:21;;;;;;;;;;;;;;;;;;1036205;28;20007;-26
2023/03/16 00:07:52;;;;;;;;;;;;;;;;;;1036034;28;19913;-27
2023/03/16 00:08:22;;;;;;;;;;;;;;;;;;1035936;28;19913;-27
2023/03/16 00:08:57;;;;;;;;;;;;;;;;;;1036167;28;20004;-26
2023/03/16 00:09:30;;;;;;;;;;;;;;;;;;1035907;28;19913;-27
2023/03/16 00:10:00;;;;;;;;;;;;;;;;;;1036192;28;19917;-26
2023/03/16 00:10:30;;;;;;;;;;;;;;;;;;1035342;28;20012;-24
2023/03/16 00:11:01;;;;;;;;;;;;;;;;;;1036195;28;20332;-25
2023/03/16 00:11:32;;;;;;;;;;;;;;;;;;1035486;28;20365;-26
2023/03/16 00:12:02;;;;;;;;;;;;;;;;;;1036264;28;19968;-26
2023/03/16 00:12:33;;;;;;;;;;;;;;;;;;1035875;28;19910;-26
2023/03/16 00:13:03;;;;;;;;;;;;;;;;;;1036217;28;19968;-26
2023/03/16 00:13:34;;;;;;;;;;;;;;;;;;1035916;28;20352;-26
2023/03/16 00:14:04;;;;;;;;;;;;;;;;;;1036067;28;19909;-26
2023/03/16 00:14:34;;;;;;;;;;;;;;;;;;1036007;28;19910;-26
2023/03/16 00:15:04;;;;;;;;;;;;;;;;;;1036254;28;19914;-26
2023/03/16 00:15:35;;;;;;;;;;;;;;;;;;1035919;28;19913;-26
2023/03/16 00:16:06;;;;;;;;;;;;;;;;;;1036079;28;19909;-26
2023/03/16 00:16:36;;;;;;;;;;;;;;;;;;1033497;28;20024;-26
2023/03/16 00:17:06;;;;;;;;;;;;;;;;;;1033753;28;20321;-26
2023/03/16 00:17:37;;;;;;;;;;;;;;;;;;1033422;28;19971;-26
2023/03/16 00:18:07;;;;;;;;;;;;;;;;;;1033837;28;19917;-26
2023/03/16 00:18:37;;;;;;;;;;;;;;;;;;1035740;28;19944;-26
2023/03/16 00:19:07;;;;;;;;;;;;;;;;;;1036127;28;19910;-26
2023/03/16 00:19:38;;;;;;;;;;;;;;;;;;1035851;28;19909;-26
2023/03/16 00:20:08;;;;;;;;;;;;;;;;;;1036168;28;19910;-26
2023/03/16 00:20:38;;;;;;;;;;;;;;;;;;1035838;28;20377;-25
2023/03/16 00:21:09;;;;;;;;;;;;;;;;;;1036249;28;19909;-26
2023/03/16 00:21:39;;;;;;;;;;;;;;;;;;1035630;28;19921;-26
2023/03/16 00:22:13;;;;;;;;;;;;;;;;;;1036376;28;19929;-26
2023/03/16 00:22:43;;;;;;;;;;;;;;;;;;1035854;28;19910;-26
2023/03/16 00:23:14;;;;;;;;;;;;;;;;;;1036140;28;20329;-27
2023/03/16 00:23:44;;;;;;;;;;;;;;;;;;1035839;28;20332;-27
2023/03/16 00:24:17;;;;;;;;;;;;;;;;;;1033519;28;19910;-26
2023/03/16 00:24:47;;;;;;;;;;;;;;;;;;1032484;28;19909;-26
2023/03/16 00:25:18;;;;;;;;;;;;;;;;;;1033476;28;19909;-27
2023/03/16 00:25:48;;;;;;;;;;;;;;;;;;1033464;28;19915;-26
2023/03/16 00:26:18;;;;;;;;;;;;;;;;;;1035898;28;20044;-26
2023/03/16 00:26:49;;;;;;;;;;;;;;;;;;1036022;28;20011;-27
2023/03/16 00:27:21;;;;;;;;;;;;;;;;;;1036040;28;19909;-26
2023/03/16 00:27:51;;;;;;;;;;;;;;;;;;1035734;28;19917;-27
2023/03/16 00:28:22;;;;;;;;;;;;;;;;;;1035911;28;19913;-26
2023/03/16 00:28:53;;;;;;;;;;;;;;;;;;1035900;28;19920;-26
2023/03/16 00:29:23;;;;;;;;;;;;;;;;;;1034925;28;19909;-25
2023/03/16 00:29:54;;;;;;;;;;;;;;;;;;1035965;28;19909;-26
2023/03/16 00:30:26;;;;;;;;;;;;;;;;;;1035710;28;19915;-26
2023/03/16 00:30:57;;;;;;;;;;;;;;;;;;1036001;28;20332;-26
2023/03/16 00:31:28;;;;;;;;;;;;;;;;;;1035903;28;19913;-26
2023/03/16 00:31:58;;;;;;;;;;;;;;;;;;1036125;28;20276;-25
2023/03/16 00:32:28;;;;;;;;;;;;;;;;;;1035674;28;20320;-26
2023/03/16 00:32:58;;;;;;;;;;;;;;;;;;1036152;28;20332;-25
2023/03/16 00:33:29;;;;;;;;;;;;;;;;;;1035757;28;20384;-26
2023/03/16 00:34:01;;;;;;;;;;;;;;;;;;1035967;28;20008;-26
2023/03/16 00:34:33;;;;;;;;;;;;;;;;;;1035270;28;19991;-26
2023/03/16 00:35:03;;;;;;;;;;;;;;;;;;1036090;28;20004;-26
2023/03/16 00:35:33;;;;;;;;;;;;;;;;;;1035608;28;19909;-25
2023/03/16 00:36:04;;;;;;;;;;;;;;;;;;1035820;28;20333;-26
2023/03/16 00:36:37;;;;;;;;;;;;;;;;;;1035853;28;20376;-26
2023/03/16 00:37:07;;;;;;;;;;;;;;;;;;1036352;28;19909;-26
2023/03/16 00:37:38;;;;;;;;;;;;;;;;;;1035730;28;20364;-27
2023/03/16 00:38:08;;;;;;;;;;;;;;;;;;1036055;28;20274;-26
2023/03/16 00:38:38;;;;;;;;;;;;;;;;;;1035731;28;19909;-26
2023/03/16 00:39:10;;;;;;;;;;;;;;;;;;1036154;28;19909;-26
2023/03/16 00:39:40;;;;;;;;;;;;;;;;;;1035720;28;19929;-26
2023/03/16 00:40:14;;;;;;;;;;;;;;;;;;1036130;28;20396;-26
2023/03/16 00:40:44;;;;;;;;;;;;;;;;;;1035720;28;19909;-25
2023/03/16 00:41:14;;;;;;;;;;;;;;;;;;1036197;28;19949;-26
2023/03/16 00:41:45;;;;;;;;;;;;;;;;;;1035627;28;19917;-26
2023/03/16 00:42:15;;;;;;;;;;;;;;;;;;1036149;28;19913;-25
2023/03/16 00:42:45;;;;;;;;;;;;;;;;;;1035874;28;19914;-26
2023/03/16 00:43:17;;;;;;;;;;;;;;;;;;1035967;28;19959;-25
2023/03/16 00:43:47;;;;;;;;;;;;;;;;;;1035762;28;19916;-26
2023/03/16 00:44:18;;;;;;;;;;;;;;;;;;1035112;28;19952;-26
2023/03/16 00:44:48;;;;;;;;;;;;;;;;;;1035672;28;20008;-26
2023/03/16 00:45:18;;;;;;;;;;;;;;;;;;1036086;28;19909;-26
2023/03/16 00:45:48;;;;;;;;;;;;;;;;;;1035801;28;19917;-27
2023/03/16 00:46:19;;;;;;;;;;;;;;;;;;1035894;28;19910;-26
2023/03/16 00:46:50;;;;;;;;;;;;;;;;;;1035704;28;19910;-26
2023/03/16 00:47:20;;;;;;;;;;;;;;;;;;1035756;28;19913;-26
2023/03/16 00:47:53;;;;;;;;;;;;;;;;;;1035625;28;19913;-27
2023/03/16 00:48:23;;;;;;;;;;;;;;;;;;1034238;28;19956;-26
2023/03/16 00:48:53;;;;;;;;;;;;;;;;;;1035661;28;20357;-26
2023/03/16 00:49:23;;;;;;;;;;;;;;;;;;1035554;28;20071;-27
2023/03/16 00:49:54;;;;;;;;;;;;;;;;;;1034972;28;19909;-25
2023/03/16 00:50:24;;;;;;;;;;;;;;;;;;1035661;28;19917;-26
2023/03/16 00:50:54;;;;;;;;;;;;;;;;;;1033031;28;19957;-25
2023/03/16 00:51:24;;;;;;;;;;;;;;;;;;1032964;28;19963;-26
2023/03/16 00:51:54;;;;;;;;;;;;;;;;;;1032625;28;19910;-26
2023/03/16 00:52:26;;;;;;;;;;;;;;;;;;1033363;28;20911;-27
2023/03/16 00:52:56;;;;;;;;;;;;;;;;;;1033326;28;19914;-25
2023/03/16 00:53:27;;;;;;;;;;;;;;;;;;1033512;28;20016;-26
2023/03/16 00:53:57;;;;;;;;;;;;;;;;;;1035785;28;19909;-26
2023/03/16 00:54:27;;;;;;;;;;;;;;;;;;1033356;28;20529;-27
2023/03/16 00:54:57;;;;;;;;;;;;;;;;;;1033461;28;20372;-26
2023/03/16 00:55:27;;;;;;;;;;;;;;;;;;1032555;28;19945;-27
2023/03/16 00:55:58;;;;;;;;;;;;;;;;;;1033596;28;20011;-26
2023/03/16 00:56:28;;;;;;;;;;;;;;;;;;1035599;28;19914;-26
2023/03/16 00:56:58;;;;;;;;;;;;;;;;;;1036180;28;19951;-26
2023/03/16 00:57:29;;;;;;;;;;;;;;;;;;1035614;28;19909;-26
2023/03/16 00:58:03;;;;;;;;;;;;;;;;;;1036245;28;19956;-26
2023/03/16 00:58:34;;;;;;;;;;;;;;;;;;1035548;28;19940;-27
2023/03/16 00:59:04;;;;;;;;;;;;;;;;;;1035396;28;19931;-26
2023/03/16 00:59:37;;;;;;;;;;;;;;;;;;1035461;28;19910;-26
2023/03/16 01:00:19;;;;;;;;;;;;;;;;;;1035967;28;19916;-26
2023/03/16 01:00:52;;;;;;;;;;;;;;;;;;1035795;28;19934;-26
2023/03/16 01:01:22;;;;;;;;;;;;;;;;;;1035773;28;19960;-25
2023/03/16 01:01:52;;;;;;;;;;;;;;;;;;1035877;28;19956;-25
2023/03/16 01:02:23;;;;;;;;;;;;;;;;;;1035700;28;19910;-26
2023/03/16 01:02:53;;;;;;;;;;;;;;;;;;1035141;28;19920;-27
2023/03/16 01:03:23;;;;;;;;;;;;;;;;;;1035161;28;20300;-27
2023/03/16 01:03:54;;;;;;;;;;;;;;;;;;1035570;28;20404;-26
2023/03/16 01:04:24;;;;;;;;;;;;;;;;;;1034680;28;20001;-25
2023/03/16 01:04:55;;;;;;;;;;;;;;;;;;1035513;28;19960;-26
2023/03/16 01:05:25;;;;;;;;;;;;;;;;;;1035244;28;19909;-26
2023/03/16 01:05:58;;;;;;;;;;;;;;;;;;1035272;28;19913;-27
2023/03/16 01:06:29;;;;;;;;;;;;;;;;;;1034216;28;20408;-26
2023/03/16 01:06:59;;;;;;;;;;;;;;;;;;1034996;28;19908;-26
2023/03/16 01:07:30;;;;;;;;;;;;;;;;;;1035560;28;20369;-26
2023/03/16 01:08:03;;;;;;;;;;;;;;;;;;1035931;28;20373;-26
2023/03/16 01:08:33;;;;;;;;;;;;;;;;;;1035142;28;19916;-26
2023/03/16 01:09:04;;;;;;;;;;;;;;;;;;1036901;28;19909;-26
2023/03/16 01:09:35;;;;;;;;;;;;;;;;;;1034591;28;19914;-26
2023/03/16 01:10:06;;;;;;;;;;;;;;;;;;1035703;28;19909;-27
2023/03/16 01:10:36;;;;;;;;;;;;;;;;;;1035338;28;19939;-26
2023/03/16 01:11:06;;;;;;;;;;;;;;;;;;1035542;28;19913;-26
2023/03/16 01:11:37;;;;;;;;;;;;;;;;;;1035695;28;19996;-26
2023/03/16 01:12:07;;;;;;;;;;;;;;;;;;1035946;28;20261;-26
2023/03/16 01:12:37;;;;;;;;;;;;;;;;;;1035246;28;20451;-26
2023/03/16 01:13:07;;;;;;;;;;;;;;;;;;1035858;28;20278;-26
2023/03/16 01:13:38;;;;;;;;;;;;;;;;;;1035695;28;20040;-26
2023/03/16 01:14:08;;;;;;;;;;;;;;;;;;1035707;28;19979;-26
2023/03/16 01:14:38;;;;;;;;;;;;;;;;;;1035419;28;19913;-26
2023/03/16 01:15:08;;;;;;;;;;;;;;;;;;1035881;28;20324;-27
2023/03/16 01:15:39;;;;;;;;;;;;;;;;;;1035527;28;19910;-26
2023/03/16 01:16:09;;;;;;;;;;;;;;;;;;1035792;28;19916;-25
2023/03/16 01:16:39;;;;;;;;;;;;;;;;;;1035686;28;19913;-26
2023/03/16 01:17:09;;;;;;;;;;;;;;;;;;1036229;28;19971;-26
2023/03/16 01:17:40;;;;;;;;;;;;;;;;;;1035449;28;20007;-26
2023/03/16 01:18:12;;;;;;;;;;;;;;;;;;1036012;28;19949;-26
2023/03/16 01:18:42;;;;;;;;;;;;;;;;;;1034647;28;20203;-26
2023/03/16 01:19:12;;;;;;;;;;;;;;;;;;1035371;28;20304;-25
2023/03/16 01:19:42;;;;;;;;;;;;;;;;;;1034403;28;19917;-27
2023/03/16 01:20:15;;;;;;;;;;;;;;;;;;1035491;28;19940;-26
2023/03/16 01:20:49;;;;;;;;;;;;;;;;;;1035014;28;20373;-27
2023/03/16 01:21:20;;;;;;;;;;;;;;;;;;1035391;28;20361;-25
2023/03/16 01:21:51;;;;;;;;;;;;;;;;;;1035306;28;19952;-26
2023/03/16 01:22:21;;;;;;;;;;;;;;;;;;1035312;28;20432;-27
2023/03/16 01:22:51;;;;;;;;;;;;;;;;;;1034532;28;19952;-26
2023/03/16 01:23:21;;;;;;;;;;;;;;;;;;1035343;28;19969;-28
2023/03/16 01:23:52;;;;;;;;;;;;;;;;;;1034947;28;19917;-27
2023/03/16 01:24:23;;;;;;;;;;;;;;;;;;1034907;28;20361;-26
2023/03/16 01:24:54;;;;;;;;;;;;;;;;;;1034174;28;19913;-26
2023/03/16 01:25:24;;;;;;;;;;;;;;;;;;1035926;28;20482;-26
2023/03/16 01:25:54;;;;;;;;;;;;;;;;;;1036264;28;19916;-27
2023/03/16 01:26:24;;;;;;;;;;;;;;;;;;1031986;28;19995;-27
2023/03/16 01:26:55;;;;;;;;;;;;;;;;;;1032115;28;20000;-26
2023/03/16 01:27:25;;;;;;;;;;;;;;;;;;1031574;28;20012;-27
2023/03/16 01:27:55;;;;;;;;;;;;;;;;;;1031447;28;20008;-27
2023/03/16 01:28:25;;;;;;;;;;;;;;;;;;1034927;28;19921;-26
2023/03/16 01:28:56;;;;;;;;;;;;;;;;;;1032989;28;19920;-27
2023/03/16 01:29:26;;;;;;;;;;;;;;;;;;1033826;28;19935;-26
2023/03/16 01:29:56;;;;;;;;;;;;;;;;;;1034166;28;19913;-27
2023/03/16 01:30:27;;;;;;;;;;;;;;;;;;1029227;28;20092;-26
2023/03/16 01:30:57;;;;;;;;;;;;;;;;;;1025450;28;20492;-27
2023/03/16 01:31:28;;;;;;;;;;;;;;;;;;1025560;28;19914;-25
2023/03/16 01:31:58;;;;;;;;;;;;;;;;;;1027476;28;20822;-26
2023/03/16 01:32:28;;;;;;;;;;;;;;;;;;1030201;28;20440;-26
2023/03/16 01:32:59;;;;;;;;;;;;;;;;;;1034718;28;19980;-27
2023/03/16 01:33:29;;;;;;;;;;;;;;;;;;1030490;28;19920;-26
2023/03/16 01:34:01;;;;;;;;;;;;;;;;;;1030868;28;19913;-27
2023/03/16 01:34:31;;;;;;;;;;;;;;;;;;1030532;28;19914;-26
2023/03/16 01:35:02;;;;;;;;;;;;;;;;;;1031922;28;20154;-26
2023/03/16 01:35:32;;;;;;;;;;;;;;;;;;1034958;28;20020;-26
2023/03/16 01:36:02;;;;;;;;;;;;;;;;;;1034423;28;19933;-26
2023/03/16 01:36:33;;;;;;;;;;;;;;;;;;1035200;28;20043;-27
2023/03/16 01:37:03;;;;;;;;;;;;;;;;;;1034978;28;19917;-26
2023/03/16 01:37:33;;;;;;;;;;;;;;;;;;1035731;28;19917;-25
2023/03/16 01:38:05;;;;;;;;;;;;;;;;;;1031763;28;19914;-27
2023/03/16 01:38:36;;;;;;;;;;;;;;;;;;1030151;28;19924;-26
2023/03/16 01:39:06;;;;;;;;;;;;;;;;;;1030446;28;19940;-27
2023/03/16 01:39:36;;;;;;;;;;;;;;;;;;1029475;28;19917;-27
2023/03/16 01:40:07;;;;;;;;;;;;;;;;;;1031144;28;19918;-27
2023/03/16 01:40:38;;;;;;;;;;;;;;;;;;1031148;28;20200;-27
2023/03/16 01:41:08;;;;;;;;;;;;;;;;;;1031935;28;19913;-27
2023/03/16 01:41:39;;;;;;;;;;;;;;;;;;1030975;28;19994;-28
2023/03/16 01:42:09;;;;;;;;;;;;;;;;;;1032041;28;19914;-26
2023/03/16 01:42:39;;;;;;;;;;;;;;;;;;1030840;28;20024;-27
2023/03/16 01:43:10;;;;;;;;;;;;;;;;;;1030414;28;20380;-28
2023/03/16 01:43:41;;;;;;;;;;;;;;;;;;1029199;28;20329;-27
2023/03/16 01:44:11;;;;;;;;;;;;;;;;;;1030085;28;19956;-26
2023/03/16 01:44:41;;;;;;;;;;;;;;;;;;1035913;28;20448;-27
2023/03/16 01:45:12;;;;;;;;;;;;;;;;;;1035216;28;19913;-27
2023/03/16 01:45:42;;;;;;;;;;;;;;;;;;1032903;28;20554;-27
2023/03/16 01:46:13;;;;;;;;;;;;;;;;;;1035353;28;19940;-26
2023/03/16 01:46:43;;;;;;;;;;;;;;;;;;1035210;28;20015;-26
2023/03/16 01:47:13;;;;;;;;;;;;;;;;;;1034365;28;20395;-27
2023/03/16 01:47:43;;;;;;;;;;;;;;;;;;1033109;28;20288;-26
2023/03/16 01:48:14;;;;;;;;;;;;;;;;;;1033582;28;19910;-27
2023/03/16 01:48:45;;;;;;;;;;;;;;;;;;1030017;28;19952;-25
2023/03/16 01:49:16;;;;;;;;;;;;;;;;;;1030155;28;20167;-28
2023/03/16 01:49:47;;;;;;;;;;;;;;;;;;1030783;28;19917;-28
2023/03/16 01:50:17;;;;;;;;;;;;;;;;;;1030445;28;19913;-27
2023/03/16 01:50:47;;;;;;;;;;;;;;;;;;1032021;28;19921;-27
2023/03/16 01:51:20;;;;;;;;;;;;;;;;;;1034728;28;19942;-27
2023/03/16 01:51:50;;;;;;;;;;;;;;;;;;1031790;28;19909;-26
2023/03/16 01:52:21;;;;;;;;;;;;;;;;;;1031014;28;19921;-27
2023/03/16 01:52:51;;;;;;;;;;;;;;;;;;1030309;28;19918;-27
2023/03/16 01:53:21;;;;;;;;;;;;;;;;;;1030380;28;19918;-27
2023/03/16 01:53:51;;;;;;;;;;;;;;;;;;1033745;28;19920;-26
2023/03/16 01:54:23;;;;;;;;;;;;;;;;;;1034510;28;20333;-26
2023/03/16 01:54:54;;;;;;;;;;;;;;;;;;1029944;28;19910;-27
2023/03/16 01:55:25;;;;;;;;;;;;;;;;;;1030836;28;19910;-26
2023/03/16 01:55:58;;;;;;;;;;;;;;;;;;1028860;28;19919;-27
2023/03/16 01:56:28;;;;;;;;;;;;;;;;;;1030939;28;19917;-27
2023/03/16 01:56:58;;;;;;;;;;;;;;;;;;1035291;28;19909;-26
2023/03/16 01:57:29;;;;;;;;;;;;;;;;;;1033697;28;19933;-27
2023/03/16 01:58:00;;;;;;;;;;;;;;;;;;1033666;28;19909;-26
2023/03/16 01:58:30;;;;;;;;;;;;;;;;;;1033124;28;19924;-27
2023/03/16 01:59:01;;;;;;;;;;;;;;;;;;1033889;28;19936;-27
2023/03/16 01:59:31;;;;;;;;;;;;;;;;;;1033757;28;19916;-27
2023/03/16 02:00:17;;;;;;;;;;;;;;;;;;1035001;28;19918;-26
2023/03/16 02:00:47;;;;;;;;;;;;;;;;;;1033760;28;20015;-27
2023/03/16 02:01:17;;;;;;;;;;;;;;;;;;1034251;28;19923;-26
2023/03/16 02:01:48;;;;;;;;;;;;;;;;;;1029567;28;19921;-27
2023/03/16 02:02:18;;;;;;;;;;;;;;;;;;1030524;28;19961;-27
2023/03/16 02:02:48;;;;;;;;;;;;;;;;;;1030238;28;19936;-28
2023/03/16 02:03:19;;;;;;;;;;;;;;;;;;1030228;28;19917;-27
2023/03/16 02:03:49;;;;;;;;;;;;;;;;;;1034547;28;19996;-27
2023/03/16 02:04:21;;;;;;;;;;;;;;;;;;1033858;28;19996;-27
2023/03/16 02:04:52;;;;;;;;;;;;;;;;;;1030466;28;20298;-27
2023/03/16 02:05:22;;;;;;;;;;;;;;;;;;1027847;28;19909;-26
2023/03/16 02:05:52;;;;;;;;;;;;;;;;;;1028053;28;19913;-26
2023/03/16 02:06:23;;;;;;;;;;;;;;;;;;1026989;28;20028;-26
2023/03/16 02:06:53;;;;;;;;;;;;;;;;;;1033737;28;19909;-27
2023/03/16 02:07:23;;;;;;;;;;;;;;;;;;1033431;28;19919;-28
2023/03/16 02:07:57;;;;;;;;;;;;;;;;;;1034793;28;19945;-27
2023/03/16 02:08:27;;;;;;;;;;;;;;;;;;1028287;28;20499;-27
2023/03/16 02:08:57;;;;;;;;;;;;;;;;;;1031172;28;19981;-27
2023/03/16 02:09:28;;;;;;;;;;;;;;;;;;1029674;28;19914;-26
2023/03/16 02:09:58;;;;;;;;;;;;;;;;;;1030909;28;19914;-28
2023/03/16 02:10:28;;;;;;;;;;;;;;;;;;1034249;28;19913;-27
2023/03/16 02:10:58;;;;;;;;;;;;;;;;;;1035178;28;19913;-29
2023/03/16 02:11:29;;;;;;;;;;;;;;;;;;1031531;28;20001;-28
2023/03/16 02:12:00;;;;;;;;;;;;;;;;;;1031506;28;19949;-25
2023/03/16 02:12:30;;;;;;;;;;;;;;;;;;1030976;28;19913;-26
2023/03/16 02:13:00;;;;;;;;;;;;;;;;;;1031131;28;19917;-28
2023/03/16 02:13:32;;;;;;;;;;;;;;;;;;1035449;28;19912;-27
2023/03/16 02:14:04;;;;;;;;;;;;;;;;;;1033234;28;19913;-27
2023/03/16 02:14:34;;;;;;;;;;;;;;;;;;1035854;28;20234;-27
2023/03/16 02:15:04;;;;;;;;;;;;;;;;;;1034342;28;19948;-27
2023/03/16 02:15:34;;;;;;;;;;;;;;;;;;1033166;28;20052;-27
2023/03/16 02:16:05;;;;;;;;;;;;;;;;;;1033719;28;19913;-28
2023/03/16 02:16:35;;;;;;;;;;;;;;;;;;1031981;28;19909;-28
2023/03/16 02:17:05;;;;;;;;;;;;;;;;;;1035215;28;20008;-28
2023/03/16 02:17:35;;;;;;;;;;;;;;;;;;1034116;28;19913;-28
2023/03/16 02:18:06;;;;;;;;;;;;;;;;;;1035191;28;19913;-28
2023/03/16 02:18:37;;;;;;;;;;;;;;;;;;1034979;28;19913;-28
2023/03/16 02:19:08;;;;;;;;;;;;;;;;;;1035439;28;19995;-28
2023/03/16 02:19:38;;;;;;;;;;;;;;;;;;1031192;28;19902;-27
2023/03/16 02:20:09;;;;;;;;;;;;;;;;;;1029932;28;20028;-27
2023/03/16 02:20:41;;;;;;;;;;;;;;;;;;1028556;28;19935;-27
2023/03/16 02:21:11;;;;;;;;;;;;;;;;;;1030087;28;19914;-27
2023/03/16 02:21:41;;;;;;;;;;;;;;;;;;1035162;28;20507;-26
2023/03/16 02:22:13;;;;;;;;;;;;;;;;;;1035796;28;19921;-27
2023/03/16 02:22:43;;;;;;;;;;;;;;;;;;1034757;28;20285;-27
2023/03/16 02:23:17;;;;;;;;;;;;;;;;;;1034604;28;20020;-27
2023/03/16 02:23:50;;;;;;;;;;;;;;;;;;1034611;28;19909;-27
2023/03/16 02:24:24;;;;;;;;;;;;;;;;;;1029547;28;20417;-27
2023/03/16 02:24:54;;;;;;;;;;;;;;;;;;1031952;28;20008;-27
2023/03/16 02:25:24;;;;;;;;;;;;;;;;;;1029889;28;19965;-27
2023/03/16 02:25:54;;;;;;;;;;;;;;;;;;1032705;28;19914;-28
2023/03/16 02:26:25;;;;;;;;;;;;;;;;;;1034518;28;19920;-27
2023/03/16 02:26:55;;;;;;;;;;;;;;;;;;1034359;28;19917;-26
2023/03/16 02:27:26;;;;;;;;;;;;;;;;;;1035176;28;20055;-28
2023/03/16 02:27:56;;;;;;;;;;;;;;;;;;1034825;28;20685;-27
2023/03/16 02:28:26;;;;;;;;;;;;;;;;;;1035192;28;20408;-27
2023/03/16 02:28:56;;;;;;;;;;;;;;;;;;1036198;28;19925;-27
2023/03/16 02:29:28;;;;;;;;;;;;;;;;;;1034678;28;19913;-27
2023/03/16 02:29:59;;;;;;;;;;;;;;;;;;1030311;28;19914;-28
2023/03/16 02:30:30;;;;;;;;;;;;;;;;;;1029942;28;19914;-27
2023/03/16 02:31:00;;;;;;;;;;;;;;;;;;1029331;28;19940;-29
2023/03/16 02:31:31;;;;;;;;;;;;;;;;;;1028912;28;19917;-27
2023/03/16 02:32:01;;;;;;;;;;;;;;;;;;1034596;28;19966;-27
2023/03/16 02:32:32;;;;;;;;;;;;;;;;;;1034311;28;19914;-27
2023/03/16 02:33:03;;;;;;;;;;;;;;;;;;1035472;28;19971;-28
2023/03/16 02:33:34;;;;;;;;;;;;;;;;;;1033893;28;19914;-25
2023/03/16 02:34:05;;;;;;;;;;;;;;;;;;1031293;28;19913;-26
2023/03/16 02:34:35;;;;;;;;;;;;;;;;;;1030788;28;19920;-26
2023/03/16 02:35:06;;;;;;;;;;;;;;;;;;1030678;28;20829;-26
2023/03/16 02:35:36;;;;;;;;;;;;;;;;;;1031510;28;19910;-28
2023/03/16 02:36:07;;;;;;;;;;;;;;;;;;1034505;28;19917;-27
2023/03/16 02:36:37;;;;;;;;;;;;;;;;;;1032919;28;20619;-27
2023/03/16 02:37:09;;;;;;;;;;;;;;;;;;1028980;28;19952;-27
2023/03/16 02:37:40;;;;;;;;;;;;;;;;;;1034541;28;20628;-26
2023/03/16 02:38:10;;;;;;;;;;;;;;;;;;1031946;28;19920;-26
2023/03/16 02:38:41;;;;;;;;;;;;;;;;;;1034650;28;20297;-26
2023/03/16 02:39:11;;;;;;;;;;;;;;;;;;1033825;28;19913;-27
2023/03/16 02:39:42;;;;;;;;;;;;;;;;;;1033796;28;20396;-26
2023/03/16 02:40:13;;;;;;;;;;;;;;;;;;1029913;28;19909;-26
2023/03/16 02:40:44;;;;;;;;;;;;;;;;;;1030991;28;20429;-27
2023/03/16 02:41:14;;;;;;;;;;;;;;;;;;1031137;28;20315;-27
2023/03/16 02:41:45;;;;;;;;;;;;;;;;;;1030049;28;19932;-25
2023/03/16 02:42:16;;;;;;;;;;;;;;;;;;1037330;28;19919;-26
2023/03/16 02:42:53;;;;;;;;;;;;;;;;;;1034069;28;19916;-26
2023/03/16 02:43:24;;;;;;;;;;;;;;;;;;1027730;28;20358;-26
2023/03/16 02:43:55;;;;;;;;;;;;;;;;;;1029272;28;20251;-26
2023/03/16 02:44:25;;;;;;;;;;;;;;;;;;1028046;28;19913;-27
2023/03/16 02:44:56;;;;;;;;;;;;;;;;;;1030104;28;20023;-25
2023/03/16 02:45:27;;;;;;;;;;;;;;;;;;1032490;28;20054;-26
2023/03/16 02:45:58;;;;;;;;;;;;;;;;;;1034508;28;19925;-27
2023/03/16 02:46:34;;;;;;;;;;;;;;;;;;1028637;28;19910;-24
2023/03/16 02:47:05;;;;;;;;;;;;;;;;;;1030813;28;19948;-27
2023/03/16 02:47:35;;;;;;;;;;;;;;;;;;1029578;28;20458;-27
2023/03/16 02:48:05;;;;;;;;;;;;;;;;;;1031579;28;20639;-27
2023/03/16 02:48:36;;;;;;;;;;;;;;;;;;1033284;28;20129;-27
2023/03/16 02:49:08;;;;;;;;;;;;;;;;;;1030692;28;19952;-26
2023/03/16 02:49:40;;;;;;;;;;;;;;;;;;1030444;28;19917;-27
2023/03/16 02:50:12;;;;;;;;;;;;;;;;;;1027401;28;19977;-26
2023/03/16 02:50:45;;;;;;;;;;;;;;;;;;1030009;28;20016;-25
2023/03/16 02:51:17;;;;;;;;;;;;;;;;;;1030067;28;19990;-26
2023/03/16 02:51:48;;;;;;;;;;;;;;;;;;1030439;28;19960;-27
2023/03/16 02:52:21;;;;;;;;;;;;;;;;;;1025273;28;19918;-28
2023/03/16 02:52:53;;;;;;;;;;;;;;;;;;1025599;28;20020;-26
2023/03/16 02:53:26;;;;;;;;;;;;;;;;;;1026594;28;19921;-27
2023/03/16 02:53:59;;;;;;;;;;;;;;;;;;1025541;28;20586;-26
2023/03/16 02:54:31;;;;;;;;;;;;;;;;;;1028553;28;19917;-26
2023/03/16 02:55:03;;;;;;;;;;;;;;;;;;1025280;28;20368;-25
2023/03/16 02:55:34;;;;;;;;;;;;;;;;;;1028204;28;19918;-27
2023/03/16 02:56:05;;;;;;;;;;;;;;;;;;1026992;28;19924;-28
2023/03/16 02:56:38;;;;;;;;;;;;;;;;;;1027350;28;20000;-27
2023/03/16 02:57:10;;;;;;;;;;;;;;;;;;1029396;28;20016;-28
2023/03/16 02:57:40;;;;;;;;;;;;;;;;;;1027176;28;19918;-27
2023/03/16 02:58:11;;;;;;;;;;;;;;;;;;1029914;28;19913;-27
2023/03/16 02:58:41;;;;;;;;;;;;;;;;;;1030164;28;20217;-26
2023/03/16 02:59:12;;;;;;;;;;;;;;;;;;1029359;28;19929;-27
2023/03/16 02:59:44;;;;;;;;;;;;;;;;;;1029024;28;19913;-27
2023/03/16 03:00:16;;;;;;;;;;;;;;;;;;1030823;28;19914;-27
2023/03/16 03:00:50;;;;;;;;;;;;;;;;;;1028145;28;20352;-27
2023/03/16 03:01:21;;;;;;;;;;;;;;;;;;1028801;28;21080;-28
2023/03/16 03:01:53;;;;;;;;;;;;;;;;;;1027733;28;19910;-28
2023/03/16 03:02:25;;;;;;;;;;;;;;;;;;1026808;28;19968;-28
2023/03/16 03:03:09;;;;;;;;;;;;;;;;;;1034484;28;20380;-28
2023/03/16 03:03:54;;;;;;;;;;;;;;;;;;1033747;28;19918;-28
2023/03/16 03:04:35;;;;;;;;;;;;;;;;;;1035730;28;20363;-27
2023/03/16 03:05:26;;;;;;;;;;;;;;;;;;1028731;28;20444;-27
2023/03/16 03:05:57;;;;;;;;;;;;;;;;;;1030096;28;20067;-27
2023/03/16 03:06:31;;;;;;;;;;;;;;;;;;1034022;28;19924;-28
2023/03/16 03:07:04;;;;;;;;;;;;;;;;;;1029634;28;19909;-27
2023/03/16 03:07:37;;;;;;;;;;;;;;;;;;1027582;28;19995;-28
2023/03/16 03:08:13;;;;;;;;;;;;;;;;;;1027974;28;19917;-27
2023/03/16 03:08:45;;;;;;;;;;;;;;;;;;1029991;28;19921;-27
2023/03/16 03:09:19;;;;;;;;;;;;;;;;;;1027718;28;19924;-27
2023/03/16 03:10:13;;;;;;;;;;;;;;;;;;1024710;28;21726;-25
2023/03/16 03:10:49;;;;;;;;;;;;;;;;;;1022372;28;20309;-26
2023/03/16 03:11:21;;;;;;;;;;;;;;;;;;1021096;28;19922;-26
2023/03/16 03:11:52;;;;;;;;;;;;;;;;;;1021586;28;20005;-26
2023/03/16 03:12:23;;;;;;;;;;;;;;;;;;1020016;28;19914;-27
2023/03/16 03:12:56;;;;;;;;;;;;;;;;;;1012905;29;19973;-27
2023/03/16 03:13:27;;;;;;;;;;;;;;;;;;1015933;29;19919;-28
2023/03/16 03:13:58;;;;;;;;;;;;;;;;;;1018381;29;19914;-27
2023/03/16 03:14:29;;;;;;;;;;;;;;;;;;1020114;29;19910;-25
2023/03/16 03:15:01;;;;;;;;;;;;;;;;;;1020831;29;20404;-26
2023/03/16 03:15:33;;;;;;;;;;;;;;;;;;1020496;28;19924;-27
2023/03/16 03:16:04;;;;;;;;;;;;;;;;;;1020912;28;19938;-26
2023/03/16 03:16:36;;;;;;;;;;;;;;;;;;1016554;29;19914;-27
2023/03/16 03:17:08;;;;;;;;;;;;;;;;;;1016106;29;20022;-26
2023/03/16 03:17:41;;;;;;;;;;;;;;;;;;1018094;29;19911;-27
2023/03/16 03:18:13;;;;;;;;;;;;;;;;;;1018859;28;19972;-27
2023/03/16 03:18:44;;;;;;;;;;;;;;;;;;1019639;29;20042;-28
2023/03/16 03:19:15;;;;;;;;;;;;;;;;;;1018148;29;20306;-27
2023/03/16 03:19:47;;;;;;;;;;;;;;;;;;1018693;29;19911;-28
2023/03/16 03:20:40;;;;;;;;;;;;;;;;;;1023022;28;19918;-27
2023/03/16 03:21:12;;;;;;;;;;;;;;;;;;1015842;28;20425;-28
2023/03/16 03:21:47;;;;;;;;;;;;;;;;;;1020877;28;20554;-26
2023/03/16 03:22:21;;;;;;;;;;;;;;;;;;1021534;28;19906;-28
2023/03/16 03:22:57;;;;;;;;;;;;;;;;;;1023077;29;20394;-27
2023/03/16 03:23:33;;;;;;;;;;;;;;;;;;1021860;29;19965;-27
2023/03/16 03:24:06;;;;;;;;;;;;;;;;;;1018760;29;19970;-27
2023/03/16 03:24:39;;;;;;;;;;;;;;;;;;1017682;29;20526;-27
2023/03/16 03:25:13;;;;;;;;;;;;;;;;;;1017111;29;19954;-26
2023/03/16 03:25:44;;;;;;;;;;;;;;;;;;1017596;29;19919;-27
2023/03/16 03:26:15;;;;;;;;;;;;;;;;;;1018541;29;19914;-27
2023/03/16 03:26:47;;;;;;;;;;;;;;;;;;1020859;28;19981;-27
2023/03/16 03:27:18;;;;;;;;;;;;;;;;;;1014371;28;20341;-27
2023/03/16 03:27:50;;;;;;;;;;;;;;;;;;1016348;29;19915;-28
2023/03/16 03:28:22;;;;;;;;;;;;;;;;;;1017889;29;20302;-27
2023/03/16 03:28:53;;;;;;;;;;;;;;;;;;1020043;28;20048;-27
2023/03/16 03:29:24;;;;;;;;;;;;;;;;;;1014996;28;20416;-28
2023/03/16 03:29:55;;;;;;;;;;;;;;;;;;1016272;29;19922;-28
2023/03/16 03:30:26;;;;;;;;;;;;;;;;;;1014512;29;19953;-27
2023/03/16 03:30:57;;;;;;;;;;;;;;;;;;1019722;28;20365;-28
2023/03/16 03:31:28;;;;;;;;;;;;;;;;;;1018589;28;20021;-27
2023/03/16 03:31:59;;;;;;;;;;;;;;;;;;1015158;29;20351;-27
2023/03/16 03:32:30;;;;;;;;;;;;;;;;;;1016589;28;19926;-28
2023/03/16 03:33:00;;;;;;;;;;;;;;;;;;1020716;28;20025;-27
2023/03/16 03:33:32;;;;;;;;;;;;;;;;;;1020310;28;19918;-27